Time;durP1;ratioP1;P1;durP2;ratioP2;P2;SDS_P1;SDS_P2;PMS_P1;PMS_P2;Temp;Humidity;BMP_temperature;BMP_pressure;BME280_temperature;BME280_humidity;BME280_pressure;Samples;Min_cycle;Max_cycle;Signal;HPM_P1;HPM_P2
2022/01/13 00:01:10;;;;;;;19.63;6.90;;;5.60;99.90;;;;;;4971623;28;20054;-90
2022/01/13 00:03:36;;;;;;;16.08;5.82;;;5.60;99.90;;;;;;4971160;28;20562;-86
2022/01/13 00:06:02;;;;;;;19.60;7.13;;;5.60;99.90;;;;;;4971021;28;20146;-87
2022/01/13 00:08:27;;;;;;;15.48;6.35;;;5.60;99.90;;;;;;4971049;28;20053;-85
2022/01/13 00:10:53;;;;;;;20.73;7.40;;;5.50;99.90;;;;;;4955573;28;20066;-88
2022/01/13 00:13:25;;;;;;;17.45;6.95;;;5.50;99.90;;;;;;4957400;28;20117;-87
2022/01/13 00:16:23;;;;;;;19.77;7.05;;;5.50;99.90;;;;;;4975415;28;20054;-88
2022/01/13 00:18:48;;;;;;;22.15;7.60;;;5.50;99.90;;;;;;4975097;28;20095;-89
2022/01/13 00:21:28;;;;;;;16.80;7.03;;;5.60;99.90;;;;;;4959420;28;20062;-88
2022/01/13 00:23:55;;;;;;;21.30;8.07;;;5.60;99.90;;;;;;4979385;28;20073;-88
2022/01/13 00:26:24;;;;;;;16.88;6.55;;;5.60;99.90;;;;;;4982159;28;20392;-89
2022/01/13 00:28:52;;;;;;;20.95;6.70;;;5.60;99.90;;;;;;5054615;28;20367;-88
2022/01/13 00:31:27;;;;;;;15.00;5.10;;;5.50;99.90;;;;;;5037652;28;20044;-88
2022/01/13 00:33:57;;;;;;;20.30;6.80;;;5.60;99.90;;;;;;5027395;28;20513;-88
2022/01/13 00:36:28;;;;;;;16.50;6.53;;;5.50;99.90;;;;;;5035758;28;20486;-87
2022/01/13 00:38:54;;;;;;;22.13;8.02;;;5.50;99.90;;;;;;5019342;28;20045;-88
2022/01/13 00:41:21;;;;;;;18.10;6.60;;;5.50;99.90;;;;;;5035799;28;20088;-88
2022/01/13 00:43:49;;;;;;;17.85;6.90;;;5.50;99.90;;;;;;5053888;28;20111;-87
2022/01/13 00:46:21;;;;;;;19.90;7.50;;;5.50;99.90;;;;;;5055733;28;20564;-88
2022/01/13 00:48:48;;;;;;;18.02;6.85;;;5.90;99.90;;;;;;5036165;28;20147;-89
2022/01/13 00:51:14;;;;;;;12.23;5.03;;;5.40;99.90;;;;;;5040607;28;20444;-88
2022/01/13 00:53:40;;;;;;;18.38;7.40;;;5.50;99.90;;;;;;5035700;28;20041;-86
2022/01/13 00:56:06;;;;;;;15.77;5.90;;;5.40;99.90;;;;;;5021614;28;20048;-88
2022/01/13 00:58:34;;;;;;;17.70;6.28;;;5.40;99.90;;;;;;5037581;28;20094;-89
2022/01/13 01:01:01;;;;;;;15.35;6.00;;;5.70;99.90;;;;;;5033820;28;20045;-86
2022/01/13 01:03:27;;;;;;;15.10;5.70;;;5.30;99.90;;;;;;5037615;28;20049;-87
2022/01/13 01:05:54;;;;;;;11.57;5.30;;;6.00;99.90;;;;;;5035405;28;20064;-87
2022/01/13 01:08:20;;;;;;;10.27;4.55;;;5.30;99.90;;;;;;5035279;28;20053;-88
2022/01/13 01:10:48;;;;;;;14.95;5.22;;;5.30;99.90;;;;;;5018974;28;20052;-87
2022/01/13 01:13:19;;;;;;;14.10;6.45;;;5.30;99.90;;;;;;5036163;28;20067;-86
2022/01/13 01:15:50;;;;;;;14.25;5.68;;;5.30;99.90;;;;;;5019397;28;20050;-89
2022/01/13 01:29:02;;;;;;;19.63;7.22;;;5.30;99.90;;;;;;4997008;28;20065;-89
2022/01/13 01:31:31;;;;;;;14.40;6.15;;;5.30;99.90;;;;;;4996296;28;20506;-89
2022/01/13 01:36:25;;;;;;;13.15;6.43;;;5.80;99.90;;;;;;5012993;28;20072;-87
2022/01/13 01:38:53;;;;;;;11.15;5.50;;;5.20;99.90;;;;;;5012957;28;20069;-86
2022/01/13 01:41:19;;;;;;;11.38;5.78;;;5.20;99.90;;;;;;4996784;28;20068;-86
2022/01/13 01:43:46;;;;;;;14.18;4.97;;;5.20;99.90;;;;;;4996157;28;20066;-86
2022/01/13 01:46:11;;;;;;;16.98;6.93;;;5.20;99.90;;;;;;4996193;28;20693;-87
2022/01/13 01:48:37;;;;;;;16.67;7.72;;;5.80;99.90;;;;;;5012814;28;20132;-84
2022/01/13 01:51:04;;;;;;;16.13;7.03;;;5.20;99.90;;;;;;5012207;28;20083;-87
2022/01/13 01:53:31;;;;;;;13.77;5.80;;;5.20;99.90;;;;;;5012768;28;20057;-88
2022/01/13 01:55:57;;;;;;;12.70;5.85;;;5.20;99.90;;;;;;5012157;28;20489;-87
2022/01/13 01:58:25;;;;;;;15.88;6.50;;;5.20;99.90;;;;;;5020881;28;20115;-87
2022/01/13 02:00:51;;;;;;;15.07;6.47;;;5.20;99.90;;;;;;5054277;28;20099;-87
2022/01/13 02:03:17;;;;;;;16.27;6.72;;;5.20;99.90;;;;;;5054271;28;20056;-86
2022/01/13 02:05:43;;;;;;;15.07;6.13;;;5.20;99.90;;;;;;5043962;28;20371;-86
2022/01/13 02:08:09;;;;;;;15.13;5.50;;;5.20;99.90;;;;;;5034118;28;20502;-85
2022/01/13 02:10:35;;;;;;;18.85;7.38;;;5.20;99.90;;;;;;5016234;28;20085;-87
2022/01/13 02:13:06;;;;;;;12.10;5.35;;;5.30;99.90;;;;;;5016649;28;20465;-84
2022/01/13 02:15:34;;;;;;;15.80;5.07;;;5.30;99.90;;;;;;5017394;28;20086;-87
2022/01/13 02:18:02;;;;;;;13.50;5.50;;;5.30;99.90;;;;;;5034078;28;20426;-84
2022/01/13 02:20:46;;;;;;;24.13;7.85;;;5.30;99.90;;;;;;5034473;28;20064;-86
2022/01/13 02:23:12;;;;;;;10.95;4.72;;;5.30;99.90;;;;;;5022751;28;20058;-84
2022/01/13 02:25:38;;;;;;;21.42;7.15;;;5.30;99.90;;;;;;5038433;28;20389;-87
2022/01/13 02:28:04;;;;;;;20.23;7.68;;;5.30;99.90;;;;;;5017507;28;20049;-86
2022/01/13 02:30:30;;;;;;;14.07;5.85;;;5.30;99.90;;;;;;5016282;28;20137;-87
2022/01/13 02:32:55;;;;;;;13.43;5.78;;;5.30;99.90;;;;;;5016389;28;20052;-87
2022/01/13 02:35:21;;;;;;;18.77;7.25;;;5.30;99.90;;;;;;5025154;28;20072;-88
2022/01/13 02:37:46;;;;;;;20.35;6.72;;;5.30;99.90;;;;;;5051333;28;20048;-83
2022/01/13 02:40:12;;;;;;;18.55;7.80;;;5.30;99.90;;;;;;5053798;28;20044;-86
2022/01/13 02:42:38;;;;;;;14.75;5.70;;;5.30;99.90;;;;;;5053515;28;20505;-89
2022/01/13 02:45:14;;;;;;;16.60;5.80;;;5.30;99.90;;;;;;5033597;28;20398;-87
2022/01/13 02:50:06;;;;;;;15.85;6.28;;;5.30;99.90;;;;;;5053575;28;20052;-83
2022/01/13 02:52:32;;;;;;;20.63;7.85;;;5.30;99.90;;;;;;5035627;28;20044;-86
2022/01/13 02:54:58;;;;;;;17.30;6.93;;;5.80;99.90;;;;;;5053511;28;20041;-88
2022/01/13 02:57:24;;;;;;;19.13;7.05;;;5.30;99.90;;;;;;5035416;28;20394;-86
2022/01/13 02:59:50;;;;;;;22.48;6.95;;;5.30;99.90;;;;;;5051156;28;20036;-87
2022/01/13 03:02:15;;;;;;;20.33;7.78;;;5.30;99.90;;;;;;5053174;28;20048;-84
2022/01/13 03:04:47;;;;;;;21.00;8.45;;;5.30;99.90;;;;;;5052535;28;20056;-87
2022/01/13 03:07:13;;;;;;;22.70;8.30;;;5.30;99.90;;;;;;5053133;28;20055;-87
2022/01/13 03:09:39;;;;;;;16.88;7.43;;;5.30;99.90;;;;;;5033566;28;20045;-87
2022/01/13 03:12:05;;;;;;;18.73;8.50;;;5.30;99.90;;;;;;5053074;28;20076;-88
2022/01/13 03:14:30;;;;;;;20.63;8.85;;;5.30;99.90;;;;;;5051556;28;20406;-88
2022/01/13 03:16:56;;;;;;;18.05;7.03;;;5.30;99.90;;;;;;5035183;28;20048;-84
2022/01/13 03:19:22;;;;;;;15.27;6.65;;;5.30;99.90;;;;;;5031638;28;20131;-86
2022/01/13 03:21:48;;;;;;;26.38;8.73;;;5.30;99.90;;;;;;5015503;28;20087;-84
2022/01/13 03:24:14;;;;;;;20.10;7.95;;;5.20;99.90;;;;;;5033004;28;20506;-89
2022/01/13 03:26:41;;;;;;;20.55;8.68;;;5.30;99.90;;;;;;5015432;28;20107;-88
2022/01/13 03:31:35;;;;;;;16.98;7.63;;;5.30;99.90;;;;;;5016360;28;20069;-86
2022/01/13 03:34:01;;;;;;;18.02;7.72;;;5.30;99.90;;;;;;5033924;28;20049;-87
2022/01/13 03:36:27;;;;;;;21.45;8.32;;;5.70;99.90;;;;;;5015310;28;20494;-88
2022/01/13 03:38:54;;;;;;;20.05;7.88;;;5.20;99.90;;;;;;5015093;28;20045;-87
2022/01/13 03:41:20;;;;;;;21.77;8.27;;;5.20;99.90;;;;;;5016025;28;20501;-83
2022/01/13 03:43:46;;;;;;;22.73;8.57;;;5.20;99.90;;;;;;5033125;28;20029;-88
2022/01/13 03:46:14;;;;;;;12.50;6.20;;;5.30;99.90;;;;;;5044992;28;20055;-89
2022/01/13 03:48:41;;;;;;;17.33;7.57;;;5.40;99.90;;;;;;5034578;28;20130;-89
2022/01/13 03:51:06;;;;;;;21.42;7.15;;;5.30;99.90;;;;;;5032903;28;20041;-85
2022/01/13 03:53:32;;;;;;;13.65;6.20;;;5.20;99.90;;;;;;5046239;28;20402;-86
2022/01/13 03:56:19;;;;;;;18.58;6.18;;;5.20;99.90;;;;;;5032677;28;20045;-86
2022/01/13 03:59:35;;;;;;;26.70;9.75;;;5.20;99.90;;;;;;5015073;28;20402;-85
2022/01/13 04:02:14;;;;;;;19.25;6.85;;;5.20;99.90;;;;;;4974793;28;20207;-84
2022/01/13 04:04:43;;;;;;;19.73;6.78;;;5.20;99.90;;;;;;4991259;28;20046;-87
2022/01/13 04:07:21;;;;;;;18.20;7.40;;;5.90;99.90;;;;;;4974773;28;20419;-88
2022/01/13 04:09:47;;;;;;;15.80;6.30;;;5.20;99.90;;;;;;4956717;28;20173;-89
2022/01/13 04:12:14;;;;;;;21.20;7.72;;;5.20;99.90;;;;;;4956011;28;20579;-89
2022/01/13 04:14:49;;;;;;;16.60;6.80;;;5.20;99.90;;;;;;4971892;28;20050;-89
2022/01/13 04:17:17;;;;;;;16.70;7.03;;;5.20;99.90;;;;;;4971823;28;20078;-88
2022/01/13 04:19:43;;;;;;;18.90;8.02;;;5.20;99.90;;;;;;4955604;28;20066;-87
2022/01/13 04:22:10;;;;;;;15.20;7.30;;;5.20;99.90;;;;;;4971548;28;20562;-90
2022/01/13 04:24:38;;;;;;;17.70;7.22;;;5.20;99.90;;;;;;4988067;28;20131;-92
2022/01/13 04:27:04;;;;;;;18.70;8.95;;;5.90;99.90;;;;;;4971753;28;20047;-89
2022/01/13 04:29:35;;;;;;;22.70;7.85;;;5.20;99.90;;;;;;4955204;28;20051;-88
2022/01/13 04:32:02;;;;;;;19.38;7.95;;;5.20;99.90;;;;;;4971490;28;20083;-89
2022/01/13 04:34:27;;;;;;;20.73;7.38;;;5.20;99.90;;;;;;4972125;28;20051;-85
2022/01/13 04:37:00;;;;;;;19.17;7.03;;;5.20;99.90;;;;;;4971403;28;20054;-88
2022/01/13 04:39:27;;;;;;;24.45;9.10;;;5.20;99.90;;;;;;5031730;28;20053;-82
2022/01/13 04:41:54;;;;;;;23.42;8.73;;;5.30;99.90;;;;;;5035883;28;20083;-87
2022/01/13 04:44:22;;;;;;;18.75;7.22;;;5.20;99.90;;;;;;5050420;28;20084;-82
2022/01/13 04:46:51;;;;;;;18.08;6.22;;;5.80;99.90;;;;;;5052151;28;20045;-82
2022/01/13 04:49:20;;;;;;;20.95;8.27;;;5.60;99.90;;;;;;5051956;28;20041;-88
2022/01/13 04:51:48;;;;;;;13.88;6.82;;;5.20;99.90;;;;;;5051791;28;20398;-83
2022/01/13 04:54:14;;;;;;;14.23;6.90;;;5.70;99.90;;;;;;5052197;28;20142;-88
2022/01/13 04:56:44;;;;;;;20.80;8.45;;;5.20;99.90;;;;;;5049903;28;20049;-88
2022/01/13 04:59:11;;;;;;;20.20;7.68;;;5.20;99.90;;;;;;5034589;28;20048;-88
2022/01/13 05:01:38;;;;;;;15.77;7.00;;;5.30;99.90;;;;;;5029302;28;20081;-89
2022/01/13 05:04:05;;;;;;;20.65;7.13;;;5.60;99.90;;;;;;5035454;28;20117;-89
2022/01/13 05:06:31;;;;;;;19.90;7.55;;;5.30;99.90;;;;;;5018489;28;20041;-88
2022/01/13 05:08:57;;;;;;;19.40;7.75;;;6.10;99.90;;;;;;5035289;28;20045;-80
2022/01/13 05:11:23;;;;;;;21.10;9.25;;;5.80;99.90;;;;;;5035676;28;20528;-88
2022/01/13 05:13:49;;;;;;;19.17;8.15;;;5.30;99.90;;;;;;5035397;28;20060;-87
2022/01/13 05:16:23;;;;;;;18.10;6.72;;;5.30;99.90;;;;;;5019949;28;20049;-88
2022/01/13 05:21:23;;;;;;;25.00;8.77;;;5.40;99.90;;;;;;5035448;28;20441;-84
2022/01/13 05:23:52;;;;;;;15.15;7.07;;;5.40;99.90;;;;;;5035078;28;20505;-89
2022/01/13 05:26:19;;;;;;;19.20;7.25;;;5.30;99.90;;;;;;5017539;28;20095;-89
2022/01/13 05:28:44;;;;;;;19.25;8.43;;;5.40;99.90;;;;;;5018731;28;20076;-89
2022/01/13 05:31:10;;;;;;;19.00;8.07;;;5.40;99.90;;;;;;5043665;28;20065;-89
2022/01/13 05:33:36;;;;;;;23.40;9.68;;;5.40;99.90;;;;;;5036876;28;20190;-89
2022/01/13 05:36:01;;;;;;;18.33;8.00;;;5.40;99.90;;;;;;5041723;28;20084;-88
2022/01/13 05:38:27;;;;;;;16.02;6.95;;;5.40;99.90;;;;;;5035810;28;20049;-80
2022/01/13 05:40:53;;;;;;;17.67;7.70;;;5.40;99.90;;;;;;5017202;28;20052;-87
2022/01/13 05:43:20;;;;;;;21.88;8.30;;;5.70;99.90;;;;;;5017343;28;20136;-86
2022/01/13 05:45:45;;;;;;;22.20;7.85;;;5.50;99.90;;;;;;5017045;28;20041;-84
2022/01/13 05:48:11;;;;;;;28.50;10.20;;;5.50;99.90;;;;;;5035713;28;20176;-85
2022/01/13 05:50:37;;;;;;;24.02;8.70;;;5.60;99.90;;;;;;5027951;28;20612;-82
2022/01/13 05:53:04;;;;;;;21.65;7.38;;;5.50;99.90;;;;;;5054771;28;20124;-81
2022/01/13 05:55:30;;;;;;;20.23;7.95;;;5.50;99.90;;;;;;5020467;28;20045;-88
2022/01/13 05:57:56;;;;;;;18.75;7.50;;;5.50;99.90;;;;;;5036638;28;20049;-89
2022/01/13 06:00:23;;;;;;;22.27;7.50;;;5.50;99.90;;;;;;5052841;28;20059;-87
2022/01/13 06:02:49;;;;;;;20.92;8.43;;;5.50;99.90;;;;;;5054247;28;20045;-87
2022/01/13 06:05:16;;;;;;;22.40;7.85;;;5.50;99.90;;;;;;5027515;28;20046;-87
2022/01/13 06:07:42;;;;;;;24.13;9.05;;;5.60;99.90;;;;;;5016878;28;20108;-86
2022/01/13 06:10:13;;;;;;;19.45;7.82;;;5.80;99.90;;;;;;5028774;28;20047;-86
2022/01/13 06:12:39;;;;;;;23.13;8.50;;;5.60;99.90;;;;;;5036155;28;20057;-87
2022/01/13 06:15:08;;;;;;;29.42;9.75;;;5.70;99.90;;;;;;5054096;28;20469;-89
2022/01/13 06:17:36;;;;;;;32.13;9.75;;;5.70;99.90;;;;;;5053981;28;20045;-88
2022/01/13 06:20:04;;;;;;;18.05;7.45;;;6.20;99.90;;;;;;5051925;28;20120;-84
2022/01/13 06:22:30;;;;;;;28.38;10.15;;;5.80;99.90;;;;;;5054192;28;20040;-88
2022/01/13 06:24:55;;;;;;;28.02;8.68;;;5.70;99.90;;;;;;5053923;28;20452;-86
2022/01/13 06:27:22;;;;;;;25.58;8.10;;;5.80;99.90;;;;;;5054534;28;20036;-86
2022/01/13 06:29:50;;;;;;;19.90;8.63;;;5.80;99.90;;;;;;5054600;28;20056;-89
2022/01/13 06:32:16;;;;;;;28.63;9.75;;;5.80;99.90;;;;;;5052035;28;20048;-87
2022/01/13 06:34:41;;;;;;;21.65;8.10;;;5.90;99.90;;;;;;5035684;28;20390;-80
2022/01/13 06:37:07;;;;;;;21.95;8.18;;;5.80;99.90;;;;;;5053457;28;20045;-85
2022/01/13 06:39:32;;;;;;;24.25;8.77;;;5.80;99.90;;;;;;5023857;28;20048;-85
2022/01/13 06:41:58;;;;;;;28.17;10.40;;;5.90;99.90;;;;;;5034805;28;20482;-88
2022/01/13 06:44:24;;;;;;;31.88;11.82;;;5.90;99.90;;;;;;5032834;28;20045;-87
2022/01/13 06:46:49;;;;;;;25.38;10.05;;;6.00;99.90;;;;;;5053414;28;20045;-89
2022/01/13 06:49:15;;;;;;;24.70;8.18;;;5.90;99.90;;;;;;5053372;28;20043;-83
2022/01/13 06:51:41;;;;;;;24.17;10.80;;;5.90;99.90;;;;;;5053679;28;20041;-88
2022/01/13 06:54:06;;;;;;;22.38;8.38;;;5.90;99.90;;;;;;5051575;28;20394;-87
2022/01/13 06:56:32;;;;;;;19.38;8.27;;;5.90;99.90;;;;;;5051569;28;20045;-88
2022/01/13 06:58:58;;;;;;;25.42;9.77;;;6.50;99.90;;;;;;5015577;28;20044;-86
2022/01/13 07:01:23;;;;;;;22.42;9.23;;;5.90;99.90;;;;;;5034437;28;20049;-88
2022/01/13 07:03:49;;;;;;;23.73;8.70;;;5.90;99.90;;;;;;5033134;28;20102;-87
2022/01/13 07:06:15;;;;;;;20.70;8.30;;;5.90;99.90;;;;;;5048717;28;20056;-90
2022/01/13 07:08:41;;;;;;;24.67;9.85;;;5.90;99.90;;;;;;5035095;28;20211;-87
2022/01/13 07:11:06;;;;;;;22.20;7.28;;;5.90;99.90;;;;;;5035367;28;20048;-84
2022/01/13 07:13:33;;;;;;;29.05;10.18;;;5.90;99.90;;;;;;5050971;28;20398;-88
2022/01/13 07:16:00;;;;;;;21.88;8.65;;;5.90;99.90;;;;;;5052845;28;20041;-87
2022/01/13 07:18:27;;;;;;;23.70;9.07;;;5.90;99.90;;;;;;5051200;28;20401;-87
2022/01/13 07:20:54;;;;;;;28.48;9.65;;;6.10;99.90;;;;;;5052941;28;20124;-85
2022/01/13 07:23:20;;;;;;;29.77;9.45;;;5.90;99.90;;;;;;5050770;28;20054;-86
2022/01/13 07:25:45;;;;;;;31.27;11.40;;;5.90;99.90;;;;;;5053052;28;20573;-87
2022/01/13 07:28:11;;;;;;;39.78;12.10;;;5.90;99.90;;;;;;5035358;28;20076;-88
2022/01/13 07:30:37;;;;;;;37.28;13.02;;;5.90;99.90;;;;;;5034452;28;20544;-89
2022/01/13 07:33:02;;;;;;;38.85;12.27;;;6.00;99.90;;;;;;5037034;28;20163;-86
2022/01/13 07:35:28;;;;;;;31.10;11.23;;;6.00;99.90;;;;;;5032470;28;20434;-84
2022/01/13 07:37:54;;;;;;;26.45;10.80;;;6.00;99.90;;;;;;5015043;28;20045;-86
2022/01/13 07:40:20;;;;;;;28.48;10.13;;;6.00;99.90;;;;;;5032871;28;20037;-89
2022/01/13 07:42:46;;;;;;;29.40;11.15;;;6.60;99.90;;;;;;5032699;28;20049;-89
2022/01/13 07:45:15;;;;;;;24.58;9.85;;;6.00;99.90;;;;;;5033700;28;20045;-88
2022/01/13 07:47:41;;;;;;;34.83;11.90;;;6.20;99.90;;;;;;5047760;28;20548;-86
2022/01/13 07:50:09;;;;;;;38.10;13.20;;;6.00;99.90;;;;;;5034394;28;20093;-87
2022/01/13 07:52:35;;;;;;;27.65;12.43;;;6.00;99.90;;;;;;5051207;28;20044;-87
2022/01/13 07:55:01;;;;;;;31.00;11.48;;;6.00;99.90;;;;;;5051000;28;20044;-88
2022/01/13 07:57:26;;;;;;;31.52;13.10;;;6.00;99.90;;;;;;5053011;28;20489;-81
2022/01/13 07:59:56;;;;;;;37.03;13.32;;;6.10;99.90;;;;;;5035106;28;20041;-88
2022/01/13 08:02:22;;;;;;;33.58;13.68;;;6.10;99.90;;;;;;5052610;28;20049;-87
2022/01/13 08:04:49;;;;;;;24.17;11.23;;;6.50;99.90;;;;;;5050544;28;20041;-86
2022/01/13 08:07:15;;;;;;;25.60;9.27;;;6.50;99.90;;;;;;5051984;28;20052;-85
2022/01/13 08:09:41;;;;;;;33.45;12.70;;;6.10;99.90;;;;;;5032687;28;20049;-87
2022/01/13 08:12:07;;;;;;;27.33;12.23;;;6.50;99.90;;;;;;5052601;28;20055;-87
2022/01/13 08:14:33;;;;;;;21.65;9.13;;;6.10;99.90;;;;;;5052335;28;20045;-85
2022/01/13 08:17:00;;;;;;;32.92;11.10;;;6.10;99.90;;;;;;5021317;28;20049;-87
2022/01/13 08:19:45;;;;;;;21.02;9.30;;;6.50;99.90;;;;;;5014642;28;20053;-84
2022/01/13 08:22:11;;;;;;;31.38;11.88;;;6.20;99.90;;;;;;5032418;28;20089;-89
2022/01/13 08:24:37;;;;;;;24.58;10.98;;;6.20;99.90;;;;;;5015910;28;20115;-88
2022/01/13 08:27:03;;;;;;;28.42;11.13;;;6.70;99.90;;;;;;5015542;28;20505;-88
2022/01/13 08:29:29;;;;;;;29.67;11.50;;;6.20;99.90;;;;;;5032369;28;20030;-86
2022/01/13 08:31:54;;;;;;;26.15;11.48;;;6.20;99.90;;;;;;5032405;28;20046;-88
2022/01/13 08:34:20;;;;;;;29.65;11.70;;;6.20;99.90;;;;;;5033245;28;20486;-88
2022/01/13 08:36:46;;;;;;;27.58;11.43;;;6.20;99.90;;;;;;5036704;28;20048;-86
2022/01/13 08:39:12;;;;;;;25.27;11.73;;;6.20;99.90;;;;;;5056121;28;20053;-89
2022/01/13 08:41:39;;;;;;;34.33;12.98;;;6.50;99.90;;;;;;5038515;28;20048;-88
2022/01/13 08:44:04;;;;;;;21.60;9.98;;;6.30;99.90;;;;;;5038226;28;20393;-89
2022/01/13 08:46:30;;;;;;;29.00;10.43;;;6.70;99.90;;;;;;5043221;28;20056;-89
2022/01/13 08:48:56;;;;;;;27.55;11.23;;;6.30;99.90;;;;;;5019428;28;20042;-87
2022/01/13 08:51:22;;;;;;;26.25;11.75;;;6.30;99.90;;;;;;5035765;28;20052;-88
2022/01/13 08:53:49;;;;;;;29.70;10.82;;;6.70;99.90;;;;;;5035829;28;20053;-87
2022/01/13 08:56:15;;;;;;;22.20;10.00;;;6.20;99.90;;;;;;5036986;28;20045;-89
2022/01/13 08:58:42;;;;;;;23.85;9.60;;;6.20;99.90;;;;;;5042163;28;20371;-87
2022/01/13 09:01:07;;;;;;;25.90;10.77;;;6.90;99.90;;;;;;5038051;28;20049;-88
2022/01/13 09:03:36;;;;;;;27.67;11.68;;;6.50;99.90;;;;;;5036139;28;20048;-88
2022/01/13 09:06:03;;;;;;;28.95;10.50;;;7.00;99.90;;;;;;5037490;28;20045;-90
2022/01/13 09:08:29;;;;;;;30.20;11.50;;;6.30;99.90;;;;;;5055308;28;20057;-85
2022/01/13 09:10:55;;;;;;;26.27;10.43;;;6.30;99.90;;;;;;5055113;28;20172;-91
2022/01/13 09:13:21;;;;;;;26.63;11.35;;;6.60;99.90;;;;;;5037821;28;20037;-88
2022/01/13 09:15:52;;;;;;;19.48;8.25;;;6.30;99.90;;;;;;5055378;28;20049;-88
2022/01/13 09:18:32;;;;;;;30.58;9.98;;;6.30;99.90;;;;;;5054968;28;20128;-91
2022/01/13 09:20:58;;;;;;;24.48;10.98;;;6.30;99.90;;;;;;5053658;28;20041;-86
2022/01/13 09:23:24;;;;;;;29.42;12.32;;;7.10;99.90;;;;;;5054561;28;20102;-88
2022/01/13 09:25:50;;;;;;;34.78;13.27;;;6.30;99.90;;;;;;5050677;28;20045;-88
2022/01/13 09:28:16;;;;;;;26.45;10.93;;;6.30;99.90;;;;;;5054962;28;20045;-88
2022/01/13 09:30:41;;;;;;;29.45;11.23;;;6.30;99.90;;;;;;5053132;28;20098;-87
2022/01/13 09:33:08;;;;;;;25.30;11.18;;;6.40;99.90;;;;;;5036292;28;20507;-88
2022/01/13 09:35:35;;;;;;;23.40;10.18;;;7.10;99.90;;;;;;5052727;28;20044;-87
2022/01/13 09:38:02;;;;;;;26.98;9.65;;;6.40;99.90;;;;;;5054883;28;20059;-87
2022/01/13 09:40:28;;;;;;;31.17;11.18;;;6.40;99.90;;;;;;5054722;28;20045;-81
2022/01/13 09:42:54;;;;;;;27.77;11.18;;;7.10;99.90;;;;;;5054912;28;20402;-86
2022/01/13 09:45:21;;;;;;;24.23;9.75;;;6.50;99.90;;;;;;5054261;28;20052;-88
2022/01/13 09:47:48;;;;;;;26.02;11.23;;;6.40;99.90;;;;;;5053915;28;20102;-85
2022/01/13 09:50:19;;;;;;;21.95;9.10;;;6.50;99.90;;;;;;5035521;28;20390;-87
2022/01/13 09:52:46;;;;;;;22.45;9.25;;;6.40;99.90;;;;;;5018599;28;20037;-85
2022/01/13 09:55:13;;;;;;;26.30;11.93;;;7.00;99.90;;;;;;5019490;28;20049;-89
2022/01/13 09:57:50;;;;;;;24.83;10.52;;;6.50;99.90;;;;;;5054223;28;20078;-87
2022/01/13 10:00:25;;;;;;;31.70;12.75;;;6.80;99.90;;;;;;5050994;28;20045;-87
2022/01/13 10:02:51;;;;;;;28.02;10.95;;;6.80;99.90;;;;;;5052887;28;20060;-85
2022/01/13 10:05:18;;;;;;;24.02;10.98;;;7.40;99.90;;;;;;5053713;28;20123;-85
2022/01/13 10:07:47;;;;;;;29.67;12.27;;;6.70;99.90;;;;;;5035882;28;20056;-86
2022/01/13 10:10:24;;;;;;;23.60;10.85;;;6.80;99.90;;;;;;5041509;28;20099;-86
2022/01/13 10:13:09;;;;;;;28.20;10.70;;;6.60;99.90;;;;;;5029921;28;20143;-83
2022/01/13 10:18:46;;;;;;;23.45;10.95;;;7.40;99.90;;;;;;5025252;28;20053;-83
2022/01/13 10:21:16;;;;;;;39.42;13.55;;;6.70;99.90;;;;;;5035240;28;20041;-83
2022/01/13 10:24:01;;;;;;;24.45;11.30;;;6.90;99.90;;;;;;5033572;28;20098;-83
2022/01/13 10:26:28;;;;;;;25.13;10.55;;;7.10;99.90;;;;;;5034058;28;20125;-84
2022/01/13 10:28:54;;;;;;;26.00;12.35;;;6.70;99.90;;;;;;5034000;28;20049;-82
2022/01/13 10:31:20;;;;;;;26.20;11.52;;;7.00;99.90;;;;;;5044607;28;20045;-86
2022/01/13 10:33:45;;;;;;;29.35;12.63;;;7.40;99.90;;;;;;5024556;28;20144;-84
2022/01/13 10:36:14;;;;;;;22.00;11.13;;;6.70;99.90;;;;;;5015445;28;20100;-83
2022/01/13 10:38:57;;;;;;;19.10;10.55;;;6.60;99.90;;;;;;5033625;28;20041;-87
2022/01/13 10:41:38;;;;;;;22.10;10.82;;;7.60;99.90;;;;;;5027602;28;20049;-82
2022/01/13 10:44:15;;;;;;;27.35;14.23;;;7.10;99.90;;;;;;5035387;28;20051;-83
2022/01/13 10:47:10;;;;;;;25.30;10.88;;;7.50;99.90;;;;;;5035545;28;20067;-86
2022/01/13 10:49:42;;;;;;;27.48;12.48;;;6.90;99.90;;;;;;4956190;28;20051;-83
2022/01/13 10:52:17;;;;;;;30.70;15.32;;;7.20;99.90;;;;;;4971734;28;20047;-84
2022/01/13 10:54:43;;;;;;;31.23;13.25;;;7.30;99.90;;;;;;4969584;28;20051;-85
2022/01/13 10:57:23;;;;;;;33.20;14.77;;;6.80;99.90;;;;;;4937939;29;20093;-84
2022/01/13 10:59:49;;;;;;;32.20;13.38;;;7.10;99.90;;;;;;4958477;28;20059;-85
2022/01/13 11:02:16;;;;;;;29.63;13.10;;;6.20;99.90;;;;;;4953949;28;20130;-84
2022/01/13 11:04:42;;;;;;;38.53;15.20;;;6.60;99.90;;;;;;4952796;29;20055;-85
2022/01/13 11:07:27;;;;;;;28.10;12.98;;;7.20;99.90;;;;;;4952941;29;20413;-86
2022/01/13 11:09:55;;;;;;;34.58;15.25;;;6.80;99.90;;;;;;4952837;28;20179;-83
2022/01/13 11:12:36;;;;;;;30.23;14.70;;;7.10;99.90;;;;;;4952947;29;20590;-83
2022/01/13 11:15:07;;;;;;;31.50;15.02;;;6.90;99.90;;;;;;4953221;28;20058;-86
2022/01/13 11:17:38;;;;;;;35.55;15.98;;;6.80;99.90;;;;;;4936992;29;20062;-86
2022/01/13 11:20:07;;;;;;;31.48;14.40;;;7.40;99.90;;;;;;4936507;29;20496;-84
2022/01/13 11:22:36;;;;;;;28.63;12.98;;;6.90;99.90;;;;;;4952879;29;20078;-85
2022/01/13 11:25:10;;;;;;;38.28;15.20;;;7.00;99.90;;;;;;4961468;28;20051;-83
2022/01/13 11:27:37;;;;;;;29.02;13.32;;;6.90;99.90;;;;;;5032841;28;20045;-82
2022/01/13 11:30:07;;;;;;;29.90;12.77;;;7.00;99.90;;;;;;5041585;28;20099;-86
2022/01/13 11:32:33;;;;;;;32.33;13.52;;;6.80;99.90;;;;;;5052276;28;20037;-82
2022/01/13 11:34:59;;;;;;;35.05;13.40;;;7.50;99.90;;;;;;5050935;28;20124;-82
2022/01/13 11:37:30;;;;;;;32.67;13.27;;;7.30;99.90;;;;;;5052601;28;20098;-84
2022/01/13 11:39:56;;;;;;;31.33;12.98;;;6.90;99.90;;;;;;5053009;28;20041;-87
2022/01/13 11:42:23;;;;;;;35.03;15.27;;;7.00;99.90;;;;;;5034606;28;20037;-83
2022/01/13 11:45:13;;;;;;;35.70;15.55;;;7.40;99.90;;;;;;5016082;28;20049;-85
2022/01/13 11:47:38;;;;;;;30.25;14.20;;;7.00;99.90;;;;;;5032522;28;20041;-83
2022/01/13 11:50:18;;;;;;;31.55;12.98;;;7.50;99.90;;;;;;5032709;28;20045;-81
2022/01/13 11:52:52;;;;;;;27.55;13.32;;;7.00;99.90;;;;;;5032904;28;20049;-83
2022/01/13 11:55:35;;;;;;;27.25;13.70;;;7.00;99.90;;;;;;5033288;28;20379;-83
2022/01/13 11:58:11;;;;;;;31.85;15.20;;;7.00;99.90;;;;;;5042865;28;20059;-81
2022/01/13 12:00:38;;;;;;;27.95;14.27;;;7.00;99.90;;;;;;5034478;28;20048;-83
2022/01/13 12:03:26;;;;;;;25.65;12.65;;;7.00;99.90;;;;;;5052660;28;20045;-82
2022/01/13 12:05:54;;;;;;;30.42;12.85;;;7.00;99.90;;;;;;5052243;28;20049;-83
2022/01/13 12:08:44;;;;;;;25.88;12.98;;;7.80;99.90;;;;;;5052965;28;20104;-83
2022/01/13 12:11:38;;;;;;;24.35;13.80;;;7.10;99.90;;;;;;5037236;28;20048;-82
2022/01/13 12:14:23;;;;;;;28.05;12.88;;;7.10;99.90;;;;;;5035964;28;20487;-85
2022/01/13 12:17:03;;;;;;;24.35;12.98;;;7.10;99.90;;;;;;5037368;28;20131;-84
2022/01/13 12:19:37;;;;;;;23.92;11.43;;;7.30;99.90;;;;;;5038904;28;20052;-84
2022/01/13 12:22:11;;;;;;;23.38;12.75;;;7.00;99.90;;;;;;5021980;28;20049;-87
2022/01/13 12:25:02;;;;;;;26.67;12.57;;;7.50;99.90;;;;;;5018761;28;20398;-91
2022/01/13 12:27:34;;;;;;;29.25;14.13;;;7.10;99.90;;;;;;5018738;28;20092;-89
2022/01/13 12:30:23;;;;;;;24.30;12.70;;;6.60;99.90;;;;;;5036966;28;20049;-90
2022/01/13 12:33:03;;;;;;;28.45;13.50;;;7.80;99.90;;;;;;5018572;28;20059;-89
2022/01/13 12:35:38;;;;;;;26.60;11.15;;;7.10;99.90;;;;;;5019861;28;20390;-90
2022/01/13 12:38:07;;;;;;;22.75;11.98;;;7.30;99.90;;;;;;5018697;28;20056;-87
2022/01/13 12:40:39;;;;;;;25.10;10.93;;;7.90;99.90;;;;;;5001681;28;20049;-87
2022/01/13 12:43:35;;;;;;;20.83;10.60;;;7.10;99.90;;;;;;5040020;28;20037;-87
2022/01/13 12:46:07;;;;;;;21.40;10.20;;;7.10;99.90;;;;;;5038104;28;20398;-87
2022/01/13 12:48:34;;;;;;;27.00;11.93;;;7.20;99.90;;;;;;5038032;28;20049;-87
2022/01/13 12:51:01;;;;;;;25.02;11.48;;;7.20;99.90;;;;;;5037983;28;20122;-89
2022/01/13 12:53:30;;;;;;;22.50;11.55;;;7.20;99.90;;;;;;5055848;28;20490;-86
2022/01/13 12:56:02;;;;;;;28.08;11.95;;;7.90;99.90;;;;;;5055636;28;20053;-87
2022/01/13 12:58:32;;;;;;;31.23;12.05;;;7.90;99.90;;;;;;5055596;28;20135;-87
2022/01/13 13:01:18;;;;;;;25.52;11.63;;;8.20;99.90;;;;;;5054007;28;20037;-86
2022/01/13 13:03:58;;;;;;;;;;;7.40;99.90;;;;;;5018020;28;20041;-86
2022/01/13 13:06:23;;;;;;;27.92;11.90;;;7.80;99.90;;;;;;5019125;28;19929;-86
2022/01/13 13:08:49;;;;;;;24.30;10.88;;;7.40;99.90;;;;;;5017892;28;20057;-87
2022/01/13 13:11:15;;;;;;;25.98;10.82;;;7.50;99.90;;;;;;5035681;28;20081;-87
2022/01/13 13:13:49;;;;;;;26.63;11.63;;;7.40;99.90;;;;;;5036199;28;20122;-89
2022/01/13 13:16:15;;;;;;;22.02;10.50;;;7.50;99.90;;;;;;5035243;28;20457;-88